sensor_id;sensor_type;location;lat;lon;timestamp;P1;durP1;ratioP1;P2;durP2;ratioP2
46505;SDS011;32220;49.808;9.968;2024-03-29T00:01:01;1.43;;;0.90;;
46505;SDS011;32220;49.808;9.968;2024-03-29T00:03:27;1.17;;;0.63;;
46505;SDS011;32220;49.808;9.968;2024-03-29T00:05:54;1.07;;;0.67;;
46505;SDS011;32220;49.808;9.968;2024-03-29T00:08:21;1.77;;;0.80;;
46505;SDS011;32220;49.808;9.968;2024-03-29T00:10:47;1.33;;;1.00;;
46505;SDS011;32220;49.808;9.968;2024-03-29T00:13:14;2.10;;;1.00;;
46505;SDS011;32220;49.808;9.968;2024-03-29T00:15:42;1.17;;;0.70;;
46505;SDS011;32220;49.808;9.968;2024-03-29T00:18:11;0.97;;;0.77;;
46505;SDS011;32220;49.808;9.968;2024-03-29T00:20:38;1.07;;;0.70;;
46505;SDS011;32220;49.808;9.968;2024-03-29T00:23:04;1.03;;;0.90;;
46505;SDS011;32220;49.808;9.968;2024-03-29T00:25:31;1.13;;;0.83;;
46505;SDS011;32220;49.808;9.968;2024-03-29T00:27:58;2.40;;;1.13;;
46505;SDS011;32220;49.808;9.968;2024-03-29T00:30:24;2.13;;;0.87;;
46505;SDS011;32220;49.808;9.968;2024-03-29T00:32:52;3.80;;;1.30;;
46505;SDS011;32220;49.808;9.968;2024-03-29T00:35:19;2.53;;;1.00;;
46505;SDS011;32220;49.808;9.968;2024-03-29T00:37:45;1.53;;;0.90;;
46505;SDS011;32220;49.808;9.968;2024-03-29T00:40:12;1.80;;;0.80;;
46505;SDS011;32220;49.808;9.968;2024-03-29T00:42:38;3.33;;;0.80;;
46505;SDS011;32220;49.808;9.968;2024-03-29T00:45:05;0.63;;;0.50;;
46505;SDS011;32220;49.808;9.968;2024-03-29T00:47:32;1.50;;;0.60;;
46505;SDS011;32220;49.808;9.968;2024-03-29T00:50:00;2.40;;;0.80;;
46505;SDS011;32220;49.808;9.968;2024-03-29T00:52:27;2.07;;;0.80;;
46505;SDS011;32220;49.808;9.968;2024-03-29T00:54:53;1.70;;;0.83;;
46505;SDS011;32220;49.808;9.968;2024-03-29T00:57:20;2.00;;;0.73;;
46505;SDS011;32220;49.808;9.968;2024-03-29T00:59:46;0.80;;;0.70;;
46505;SDS011;32220;49.808;9.968;2024-03-29T01:02:13;0.93;;;0.60;;
46505;SDS011;32220;49.808;9.968;2024-03-29T01:04:40;0.97;;;0.57;;
46505;SDS011;32220;49.808;9.968;2024-03-29T01:07:08;0.90;;;0.63;;
46505;SDS011;32220;49.808;9.968;2024-03-29T01:09:35;1.00;;;0.70;;
46505;SDS011;32220;49.808;9.968;2024-03-29T01:12:02;1.53;;;0.63;;
46505;SDS011;32220;49.808;9.968;2024-03-29T01:14:28;0.90;;;0.80;;
46505;SDS011;32220;49.808;9.968;2024-03-29T01:16:55;0.93;;;0.60;;
46505;SDS011;32220;49.808;9.968;2024-03-29T01:19:21;0.73;;;0.63;;
46505;SDS011;32220;49.808;9.968;2024-03-29T01:21:48;0.90;;;0.70;;
46505;SDS011;32220;49.808;9.968;2024-03-29T01:24:16;1.13;;;0.70;;
46505;SDS011;32220;49.808;9.968;2024-03-29T01:26:43;1.50;;;0.80;;
46505;SDS011;32220;49.808;9.968;2024-03-29T01:29:09;0.90;;;0.70;;
46505;SDS011;32220;49.808;9.968;2024-03-29T01:31:36;2.57;;;0.87;;
46505;SDS011;32220;49.808;9.968;2024-03-29T01:34:02;3.27;;;1.00;;
46505;SDS011;32220;49.808;9.968;2024-03-29T01:36:29;2.00;;;0.80;;
46505;SDS011;32220;49.808;9.968;2024-03-29T01:38:56;1.40;;;0.70;;
46505;SDS011;32220;49.808;9.968;2024-03-29T01:41:24;2.53;;;0.60;;
46505;SDS011;32220;49.808;9.968;2024-03-29T01:43:51;0.97;;;0.70;;
46505;SDS011;32220;49.808;9.968;2024-03-29T01:46:19;0.73;;;0.57;;
46505;SDS011;32220;49.808;9.968;2024-03-29T01:48:48;0.53;;;0.40;;
46505;SDS011;32220;49.808;9.968;2024-03-29T01:51:16;0.80;;;0.70;;
46505;SDS011;32220;49.808;9.968;2024-03-29T01:53:45;1.43;;;0.70;;
46505;SDS011;32220;49.808;9.968;2024-03-29T01:56:14;1.80;;;0.80;;
46505;SDS011;32220;49.808;9.968;2024-03-29T01:58:44;1.50;;;0.63;;
46505;SDS011;32220;49.808;9.968;2024-03-29T02:01:12;0.50;;;0.50;;
46505;SDS011;32220;49.808;9.968;2024-03-29T02:03:40;0.93;;;0.50;;
46505;SDS011;32220;49.808;9.968;2024-03-29T02:06:08;1.07;;;0.50;;
46505;SDS011;32220;49.808;9.968;2024-03-29T02:08:36;1.17;;;0.70;;
46505;SDS011;32220;49.808;9.968;2024-03-29T02:11:03;1.20;;;0.80;;
46505;SDS011;32220;49.808;9.968;2024-03-29T02:13:31;4.23;;;0.73;;
46505;SDS011;32220;49.808;9.968;2024-03-29T02:16:00;0.80;;;0.80;;
46505;SDS011;32220;49.808;9.968;2024-03-29T02:18:27;1.73;;;0.83;;
46505;SDS011;32220;49.808;9.968;2024-03-29T02:20:55;1.10;;;0.70;;
46505;SDS011;32220;49.808;9.968;2024-03-29T02:23:24;1.20;;;0.77;;
46505;SDS011;32220;49.808;9.968;2024-03-29T02:25:55;1.53;;;0.60;;
46505;SDS011;32220;49.808;9.968;2024-03-29T02:28:23;2.90;;;0.63;;
46505;SDS011;32220;49.808;9.968;2024-03-29T02:30:53;0.93;;;0.60;;
46505;SDS011;32220;49.808;9.968;2024-03-29T02:33:20;0.83;;;0.73;;
46505;SDS011;32220;49.808;9.968;2024-03-29T02:35:48;1.50;;;0.70;;
46505;SDS011;32220;49.808;9.968;2024-03-29T02:38:16;0.70;;;0.63;;
46505;SDS011;32220;49.808;9.968;2024-03-29T02:40:43;1.23;;;0.73;;
46505;SDS011;32220;49.808;9.968;2024-03-29T02:43:12;0.97;;;0.50;;
46505;SDS011;32220;49.808;9.968;2024-03-29T02:45:39;2.10;;;0.87;;
46505;SDS011;32220;49.808;9.968;2024-03-29T02:48:07;1.27;;;0.60;;
46505;SDS011;32220;49.808;9.968;2024-03-29T02:50:34;2.40;;;0.90;;
46505;SDS011;32220;49.808;9.968;2024-03-29T02:53:01;1.03;;;0.50;;
46505;SDS011;32220;49.808;9.968;2024-03-29T02:55:28;1.07;;;0.67;;
46505;SDS011;32220;49.808;9.968;2024-03-29T02:57:54;0.33;;;0.33;;
46505;SDS011;32220;49.808;9.968;2024-03-29T03:00:23;1.87;;;0.80;;
46505;SDS011;32220;49.808;9.968;2024-03-29T03:02:50;1.10;;;0.70;;
46505;SDS011;32220;49.808;9.968;2024-03-29T03:05:36;1.83;;;0.70;;
46505;SDS011;32220;49.808;9.968;2024-03-29T03:08:03;0.70;;;0.70;;
46505;SDS011;32220;49.808;9.968;2024-03-29T03:10:47;1.33;;;0.70;;
46505;SDS011;32220;49.808;9.968;2024-03-29T03:13:26;0.80;;;0.70;;
46505;SDS011;32220;49.808;9.968;2024-03-29T03:15:55;1.23;;;0.77;;
46505;SDS011;32220;49.808;9.968;2024-03-29T03:18:23;1.90;;;0.73;;
46505;SDS011;32220;49.808;9.968;2024-03-29T03:20:51;0.70;;;0.57;;
46505;SDS011;32220;49.808;9.968;2024-03-29T03:23:18;1.17;;;0.60;;
46505;SDS011;32220;49.808;9.968;2024-03-29T03:25:46;0.87;;;0.60;;
46505;SDS011;32220;49.808;9.968;2024-03-29T03:28:13;0.70;;;0.70;;
46505;SDS011;32220;49.808;9.968;2024-03-29T03:30:41;2.03;;;0.70;;
46505;SDS011;32220;49.808;9.968;2024-03-29T03:33:08;0.80;;;0.70;;
46505;SDS011;32220;49.808;9.968;2024-03-29T03:35:36;1.37;;;0.70;;
46505;SDS011;32220;49.808;9.968;2024-03-29T03:38:02;1.43;;;0.70;;
46505;SDS011;32220;49.808;9.968;2024-03-29T03:40:30;0.60;;;0.60;;
46505;SDS011;32220;49.808;9.968;2024-03-29T03:42:56;0.97;;;0.80;;
46505;SDS011;32220;49.808;9.968;2024-03-29T03:45:24;0.63;;;0.63;;
46505;SDS011;32220;49.808;9.968;2024-03-29T03:47:50;1.27;;;0.80;;
46505;SDS011;32220;49.808;9.968;2024-03-29T03:50:19;1.23;;;0.70;;
46505;SDS011;32220;49.808;9.968;2024-03-29T03:52:46;0.60;;;0.60;;
46505;SDS011;32220;49.808;9.968;2024-03-29T03:55:13;1.13;;;0.80;;
46505;SDS011;32220;49.808;9.968;2024-03-29T03:57:39;1.23;;;0.90;;
46505;SDS011;32220;49.808;9.968;2024-03-29T04:00:07;0.60;;;0.60;;
46505;SDS011;32220;49.808;9.968;2024-03-29T04:02:40;0.83;;;0.70;;
46505;SDS011;32220;49.808;9.968;2024-03-29T04:05:08;2.07;;;0.80;;
46505;SDS011;32220;49.808;9.968;2024-03-29T04:07:36;1.90;;;0.90;;
46505;SDS011;32220;49.808;9.968;2024-03-29T04:10:04;0.80;;;0.80;;
46505;SDS011;32220;49.808;9.968;2024-03-29T04:12:31;1.13;;;0.97;;
46505;SDS011;32220;49.808;9.968;2024-03-29T04:14:59;1.17;;;0.70;;
46505;SDS011;32220;49.808;9.968;2024-03-29T04:17:25;0.67;;;0.63;;
46505;SDS011;32220;49.808;9.968;2024-03-29T04:19:53;0.70;;;0.60;;
46505;SDS011;32220;49.808;9.968;2024-03-29T04:22:19;0.60;;;0.60;;
46505;SDS011;32220;49.808;9.968;2024-03-29T04:24:48;1.27;;;0.93;;
46505;SDS011;32220;49.808;9.968;2024-03-29T04:27:14;1.00;;;0.87;;
46505;SDS011;32220;49.808;9.968;2024-03-29T04:29:42;1.73;;;0.90;;
46505;SDS011;32220;49.808;9.968;2024-03-29T04:32:08;1.00;;;0.90;;
46505;SDS011;32220;49.808;9.968;2024-03-29T04:34:36;0.60;;;0.50;;
46505;SDS011;32220;49.808;9.968;2024-03-29T04:37:02;1.10;;;0.73;;
46505;SDS011;32220;49.808;9.968;2024-03-29T04:39:30;1.53;;;1.00;;
46505;SDS011;32220;49.808;9.968;2024-03-29T04:41:59;1.30;;;0.80;;
46505;SDS011;32220;49.808;9.968;2024-03-29T04:44:26;0.97;;;0.67;;
46505;SDS011;32220;49.808;9.968;2024-03-29T04:46:54;1.03;;;0.87;;
46505;SDS011;32220;49.808;9.968;2024-03-29T04:49:22;1.00;;;0.90;;
46505;SDS011;32220;49.808;9.968;2024-03-29T04:51:56;0.93;;;0.80;;
46505;SDS011;32220;49.808;9.968;2024-03-29T04:54:23;1.33;;;1.00;;
46505;SDS011;32220;49.808;9.968;2024-03-29T04:56:51;2.57;;;0.90;;
46505;SDS011;32220;49.808;9.968;2024-03-29T04:59:20;0.97;;;0.77;;
46505;SDS011;32220;49.808;9.968;2024-03-29T05:01:49;0.87;;;0.80;;
46505;SDS011;32220;49.808;9.968;2024-03-29T05:04:19;0.70;;;0.70;;
46505;SDS011;32220;49.808;9.968;2024-03-29T05:06:51;1.40;;;0.73;;
46505;SDS011;32220;49.808;9.968;2024-03-29T05:09:19;1.13;;;0.83;;
46505;SDS011;32220;49.808;9.968;2024-03-29T05:11:47;1.13;;;0.70;;
46505;SDS011;32220;49.808;9.968;2024-03-29T05:14:15;0.70;;;0.70;;
46505;SDS011;32220;49.808;9.968;2024-03-29T05:16:45;0.93;;;0.70;;
46505;SDS011;32220;49.808;9.968;2024-03-29T05:19:14;0.77;;;0.70;;
46505;SDS011;32220;49.808;9.968;2024-03-29T05:21:42;1.00;;;0.60;;
46505;SDS011;32220;49.808;9.968;2024-03-29T05:24:10;1.43;;;0.90;;
46505;SDS011;32220;49.808;9.968;2024-03-29T05:26:37;0.70;;;0.70;;
46505;SDS011;32220;49.808;9.968;2024-03-29T05:29:04;1.57;;;1.00;;
46505;SDS011;32220;49.808;9.968;2024-03-29T05:31:33;1.07;;;0.97;;
46505;SDS011;32220;49.808;9.968;2024-03-29T05:34:02;1.30;;;0.90;;
46505;SDS011;32220;49.808;9.968;2024-03-29T05:36:30;1.57;;;1.07;;
46505;SDS011;32220;49.808;9.968;2024-03-29T05:38:58;1.03;;;0.83;;
46505;SDS011;32220;49.808;9.968;2024-03-29T05:41:25;1.20;;;0.83;;
46505;SDS011;32220;49.808;9.968;2024-03-29T05:43:56;0.87;;;0.80;;
46505;SDS011;32220;49.808;9.968;2024-03-29T05:46:36;0.87;;;0.67;;
46505;SDS011;32220;49.808;9.968;2024-03-29T05:49:06;2.07;;;0.90;;
46505;SDS011;32220;49.808;9.968;2024-03-29T05:51:34;0.70;;;0.70;;
46505;SDS011;32220;49.808;9.968;2024-03-29T05:54:01;1.47;;;0.80;;
46505;SDS011;32220;49.808;9.968;2024-03-29T05:56:30;1.07;;;0.73;;
46505;SDS011;32220;49.808;9.968;2024-03-29T05:58:57;0.70;;;0.63;;
46505;SDS011;32220;49.808;9.968;2024-03-29T06:01:25;1.37;;;0.80;;
46505;SDS011;32220;49.808;9.968;2024-03-29T06:03:52;1.27;;;0.70;;
46505;SDS011;32220;49.808;9.968;2024-03-29T06:06:23;0.70;;;0.60;;
46505;SDS011;32220;49.808;9.968;2024-03-29T06:08:51;2.87;;;0.90;;
46505;SDS011;32220;49.808;9.968;2024-03-29T06:11:18;0.80;;;0.70;;
46505;SDS011;32220;49.808;9.968;2024-03-29T06:13:46;0.67;;;0.67;;
46505;SDS011;32220;49.808;9.968;2024-03-29T06:16:31;1.53;;;0.83;;
46505;SDS011;32220;49.808;9.968;2024-03-29T06:19:15;1.63;;;0.90;;
46505;SDS011;32220;49.808;9.968;2024-03-29T06:21:44;1.00;;;0.90;;
46505;SDS011;32220;49.808;9.968;2024-03-29T06:24:12;0.83;;;0.80;;
46505;SDS011;32220;49.808;9.968;2024-03-29T06:26:40;0.80;;;0.80;;
46505;SDS011;32220;49.808;9.968;2024-03-29T06:29:08;1.00;;;0.80;;
46505;SDS011;32220;49.808;9.968;2024-03-29T06:31:36;0.87;;;0.73;;
46505;SDS011;32220;49.808;9.968;2024-03-29T06:34:03;0.90;;;0.90;;
46505;SDS011;32220;49.808;9.968;2024-03-29T06:36:31;0.97;;;0.70;;
46505;SDS011;32220;49.808;9.968;2024-03-29T06:39:02;0.70;;;0.70;;
46505;SDS011;32220;49.808;9.968;2024-03-29T06:41:30;0.83;;;0.70;;
46505;SDS011;32220;49.808;9.968;2024-03-29T06:43:58;0.70;;;0.60;;
46505;SDS011;32220;49.808;9.968;2024-03-29T06:46:25;0.97;;;0.80;;
46505;SDS011;32220;49.808;9.968;2024-03-29T06:48:53;0.83;;;0.80;;
46505;SDS011;32220;49.808;9.968;2024-03-29T06:51:20;2.17;;;1.07;;
46505;SDS011;32220;49.808;9.968;2024-03-29T06:53:48;1.63;;;0.70;;
46505;SDS011;32220;49.808;9.968;2024-03-29T06:56:17;2.87;;;1.10;;
46505;SDS011;32220;49.808;9.968;2024-03-29T06:58:45;1.10;;;1.00;;
46505;SDS011;32220;49.808;9.968;2024-03-29T07:01:12;0.90;;;0.80;;
46505;SDS011;32220;49.808;9.968;2024-03-29T07:03:39;1.20;;;1.00;;
46505;SDS011;32220;49.808;9.968;2024-03-29T07:06:07;1.50;;;1.00;;
46505;SDS011;32220;49.808;9.968;2024-03-29T07:08:34;1.30;;;1.00;;
46505;SDS011;32220;49.808;9.968;2024-03-29T07:11:02;0.70;;;0.70;;
46505;SDS011;32220;49.808;9.968;2024-03-29T07:13:31;0.93;;;0.90;;
46505;SDS011;32220;49.808;9.968;2024-03-29T07:15:59;1.07;;;0.83;;
46505;SDS011;32220;49.808;9.968;2024-03-29T07:18:27;1.40;;;1.00;;
46505;SDS011;32220;49.808;9.968;2024-03-29T07:20:55;1.50;;;0.70;;
46505;SDS011;32220;49.808;9.968;2024-03-29T07:23:23;1.20;;;0.90;;
46505;SDS011;32220;49.808;9.968;2024-03-29T07:25:57;1.53;;;0.80;;
46505;SDS011;32220;49.808;9.968;2024-03-29T07:28:25;1.37;;;1.00;;
46505;SDS011;32220;49.808;9.968;2024-03-29T07:30:54;1.90;;;1.10;;
46505;SDS011;32220;49.808;9.968;2024-03-29T07:33:23;1.47;;;1.00;;
46505;SDS011;32220;49.808;9.968;2024-03-29T07:35:52;1.23;;;0.80;;
46505;SDS011;32220;49.808;9.968;2024-03-29T07:38:19;2.73;;;0.90;;
46505;SDS011;32220;49.808;9.968;2024-03-29T07:40:46;1.07;;;0.97;;
46505;SDS011;32220;49.808;9.968;2024-03-29T07:43:14;1.00;;;0.90;;
46505;SDS011;32220;49.808;9.968;2024-03-29T07:45:42;1.33;;;0.87;;
46505;SDS011;32220;49.808;9.968;2024-03-29T07:48:12;0.90;;;0.80;;
46505;SDS011;32220;49.808;9.968;2024-03-29T07:50:41;0.70;;;0.70;;
46505;SDS011;32220;49.808;9.968;2024-03-29T07:53:09;0.90;;;0.80;;
46505;SDS011;32220;49.808;9.968;2024-03-29T07:55:37;0.83;;;0.60;;
46505;SDS011;32220;49.808;9.968;2024-03-29T07:58:05;0.50;;;0.50;;
46505;SDS011;32220;49.808;9.968;2024-03-29T08:00:34;0.60;;;0.60;;
46505;SDS011;32220;49.808;9.968;2024-03-29T08:03:06;0.97;;;0.63;;
46505;SDS011;32220;49.808;9.968;2024-03-29T08:05:35;0.60;;;0.50;;
46505;SDS011;32220;49.808;9.968;2024-03-29T08:08:02;0.77;;;0.60;;
46505;SDS011;32220;49.808;9.968;2024-03-29T08:10:30;1.27;;;0.53;;
46505;SDS011;32220;49.808;9.968;2024-03-29T08:12:58;0.30;;;0.30;;
46505;SDS011;32220;49.808;9.968;2024-03-29T08:15:26;0.93;;;0.70;;
46505;SDS011;32220;49.808;9.968;2024-03-29T08:17:54;2.13;;;0.80;;
46505;SDS011;32220;49.808;9.968;2024-03-29T08:20:21;0.53;;;0.50;;
46505;SDS011;32220;49.808;9.968;2024-03-29T08:22:59;0.73;;;0.67;;
46505;SDS011;32220;49.808;9.968;2024-03-29T08:25:26;0.50;;;0.50;;
46505;SDS011;32220;49.808;9.968;2024-03-29T08:27:54;1.07;;;0.70;;
46505;SDS011;32220;49.808;9.968;2024-03-29T08:30:24;0.60;;;0.57;;
46505;SDS011;32220;49.808;9.968;2024-03-29T08:32:52;1.30;;;1.20;;
46505;SDS011;32220;49.808;9.968;2024-03-29T08:35:20;1.43;;;1.27;;
46505;SDS011;32220;49.808;9.968;2024-03-29T08:37:47;2.33;;;1.10;;
46505;SDS011;32220;49.808;9.968;2024-03-29T08:40:17;1.00;;;0.87;;
46505;SDS011;32220;49.808;9.968;2024-03-29T08:42:45;1.90;;;1.00;;
46505;SDS011;32220;49.808;9.968;2024-03-29T08:45:12;1.00;;;0.90;;
46505;SDS011;32220;49.808;9.968;2024-03-29T08:47:40;1.20;;;1.10;;
46505;SDS011;32220;49.808;9.968;2024-03-29T08:50:08;0.83;;;0.70;;
46505;SDS011;32220;49.808;9.968;2024-03-29T08:52:36;1.00;;;0.70;;
46505;SDS011;32220;49.808;9.968;2024-03-29T08:55:04;0.83;;;0.70;;
46505;SDS011;32220;49.808;9.968;2024-03-29T08:57:33;0.97;;;0.70;;
46505;SDS011;32220;49.808;9.968;2024-03-29T09:00:01;0.83;;;0.67;;
46505;SDS011;32220;49.808;9.968;2024-03-29T09:02:31;1.00;;;0.67;;
46505;SDS011;32220;49.808;9.968;2024-03-29T09:04:58;0.93;;;0.80;;
46505;SDS011;32220;49.808;9.968;2024-03-29T09:07:25;1.23;;;1.00;;
46505;SDS011;32220;49.808;9.968;2024-03-29T09:09:53;0.83;;;0.80;;
46505;SDS011;32220;49.808;9.968;2024-03-29T09:12:21;0.90;;;0.83;;
46505;SDS011;32220;49.808;9.968;2024-03-29T09:14:50;0.73;;;0.60;;
46505;SDS011;32220;49.808;9.968;2024-03-29T09:17:18;0.67;;;0.67;;
46505;SDS011;32220;49.808;9.968;2024-03-29T09:19:49;0.87;;;0.73;;
46505;SDS011;32220;49.808;9.968;2024-03-29T09:22:17;1.53;;;0.70;;
46505;SDS011;32220;49.808;9.968;2024-03-29T09:24:45;0.80;;;0.53;;
46505;SDS011;32220;49.808;9.968;2024-03-29T09:27:12;1.60;;;0.73;;
46505;SDS011;32220;49.808;9.968;2024-03-29T09:29:40;1.90;;;1.07;;
46505;SDS011;32220;49.808;9.968;2024-03-29T09:32:10;1.00;;;0.50;;
46505;SDS011;32220;49.808;9.968;2024-03-29T09:34:37;2.30;;;0.70;;
46505;SDS011;32220;49.808;9.968;2024-03-29T09:37:05;0.80;;;0.80;;
46505;SDS011;32220;49.808;9.968;2024-03-29T09:39:32;0.83;;;0.63;;
46505;SDS011;32220;49.808;9.968;2024-03-29T09:42:00;2.90;;;0.60;;
46505;SDS011;32220;49.808;9.968;2024-03-29T09:44:31;1.67;;;0.87;;
46505;SDS011;32220;49.808;9.968;2024-03-29T09:47:00;0.80;;;0.70;;
46505;SDS011;32220;49.808;9.968;2024-03-29T09:49:32;0.70;;;0.70;;
46505;SDS011;32220;49.808;9.968;2024-03-29T09:52:00;1.53;;;1.00;;
46505;SDS011;32220;49.808;9.968;2024-03-29T09:54:28;1.57;;;0.67;;
46505;SDS011;32220;49.808;9.968;2024-03-29T09:56:56;2.37;;;0.70;;
46505;SDS011;32220;49.808;9.968;2024-03-29T09:59:24;0.97;;;0.70;;
46505;SDS011;32220;49.808;9.968;2024-03-29T10:01:54;1.10;;;0.80;;
46505;SDS011;32220;49.808;9.968;2024-03-29T10:04:23;1.07;;;0.60;;
46505;SDS011;32220;49.808;9.968;2024-03-29T10:06:52;0.97;;;0.77;;
46505;SDS011;32220;49.808;9.968;2024-03-29T10:09:22;1.43;;;0.77;;
46505;SDS011;32220;49.808;9.968;2024-03-29T10:11:53;2.43;;;0.93;;
46505;SDS011;32220;49.808;9.968;2024-03-29T10:14:21;1.37;;;1.03;;
46505;SDS011;32220;49.808;9.968;2024-03-29T10:16:50;1.43;;;0.77;;
46505;SDS011;32220;49.808;9.968;2024-03-29T10:19:19;1.57;;;0.80;;
46505;SDS011;32220;49.808;9.968;2024-03-29T10:21:47;0.80;;;0.80;;
46505;SDS011;32220;49.808;9.968;2024-03-29T10:24:16;0.90;;;0.77;;
46505;SDS011;32220;49.808;9.968;2024-03-29T10:26:44;0.90;;;0.90;;
46505;SDS011;32220;49.808;9.968;2024-03-29T10:29:11;1.87;;;0.83;;
46505;SDS011;32220;49.808;9.968;2024-03-29T10:31:39;1.67;;;0.90;;
46505;SDS011;32220;49.808;9.968;2024-03-29T10:34:06;1.10;;;1.00;;
46505;SDS011;32220;49.808;9.968;2024-03-29T10:36:34;2.27;;;0.80;;
46505;SDS011;32220;49.808;9.968;2024-03-29T10:39:02;1.20;;;0.80;;
46505;SDS011;32220;49.808;9.968;2024-03-29T10:41:40;1.50;;;0.67;;
46505;SDS011;32220;49.808;9.968;2024-03-29T10:44:08;0.80;;;0.80;;
46505;SDS011;32220;49.808;9.968;2024-03-29T10:46:39;1.00;;;0.90;;
46505;SDS011;32220;49.808;9.968;2024-03-29T10:49:07;1.60;;;0.83;;
46505;SDS011;32220;49.808;9.968;2024-03-29T10:51:37;1.53;;;0.93;;
46505;SDS011;32220;49.808;9.968;2024-03-29T10:54:06;0.90;;;0.83;;
46505;SDS011;32220;49.808;9.968;2024-03-29T10:56:35;0.70;;;0.70;;
46505;SDS011;32220;49.808;9.968;2024-03-29T10:59:06;1.07;;;0.97;;
46505;SDS011;32220;49.808;9.968;2024-03-29T11:01:39;1.80;;;1.00;;
46505;SDS011;32220;49.808;9.968;2024-03-29T11:04:13;2.10;;;0.90;;
46505;SDS011;32220;49.808;9.968;2024-03-29T11:06:48;1.03;;;0.93;;
46505;SDS011;32220;49.808;9.968;2024-03-29T11:09:19;0.90;;;0.90;;
46505;SDS011;32220;49.808;9.968;2024-03-29T11:11:48;1.40;;;1.00;;
46505;SDS011;32220;49.808;9.968;2024-03-29T11:14:20;1.10;;;1.00;;
46505;SDS011;32220;49.808;9.968;2024-03-29T11:16:51;1.07;;;0.70;;
46505;SDS011;32220;49.808;9.968;2024-03-29T11:19:23;0.77;;;0.77;;
46505;SDS011;32220;49.808;9.968;2024-03-29T11:21:50;1.80;;;1.10;;
46505;SDS011;32220;49.808;9.968;2024-03-29T11:24:19;1.23;;;0.97;;
46505;SDS011;32220;49.808;9.968;2024-03-29T11:26:50;1.33;;;1.10;;
46505;SDS011;32220;49.808;9.968;2024-03-29T11:29:19;0.80;;;0.80;;
46505;SDS011;32220;49.808;9.968;2024-03-29T11:31:47;1.17;;;1.00;;
46505;SDS011;32220;49.808;9.968;2024-03-29T11:34:23;1.07;;;0.97;;
46505;SDS011;32220;49.808;9.968;2024-03-29T11:36:50;3.80;;;1.60;;
46505;SDS011;32220;49.808;9.968;2024-03-29T11:39:21;12.40;;;4.37;;
46505;SDS011;32220;49.808;9.968;2024-03-29T11:41:50;18.53;;;6.27;;
46505;SDS011;32220;49.808;9.968;2024-03-29T11:44:17;11.10;;;4.50;;
46505;SDS011;32220;49.808;9.968;2024-03-29T11:46:47;4.80;;;2.53;;
46505;SDS011;32220;49.808;9.968;2024-03-29T11:49:16;6.23;;;2.63;;
46505;SDS011;32220;49.808;9.968;2024-03-29T11:51:43;7.37;;;3.57;;
46505;SDS011;32220;49.808;9.968;2024-03-29T11:54:11;5.70;;;3.00;;
46505;SDS011;32220;49.808;9.968;2024-03-29T11:56:39;4.90;;;3.10;;
46505;SDS011;32220;49.808;9.968;2024-03-29T11:59:06;4.97;;;2.77;;
46505;SDS011;32220;49.808;9.968;2024-03-29T12:01:35;3.03;;;1.93;;
46505;SDS011;32220;49.808;9.968;2024-03-29T12:04:05;3.40;;;2.67;;
46505;SDS011;32220;49.808;9.968;2024-03-29T12:06:33;2.73;;;2.13;;
46505;SDS011;32220;49.808;9.968;2024-03-29T12:09:00;3.17;;;1.80;;
46505;SDS011;32220;49.808;9.968;2024-03-29T12:11:28;1.97;;;1.47;;
46505;SDS011;32220;49.808;9.968;2024-03-29T12:13:56;1.93;;;1.40;;
46505;SDS011;32220;49.808;9.968;2024-03-29T12:16:24;1.70;;;1.40;;
46505;SDS011;32220;49.808;9.968;2024-03-29T12:18:53;1.37;;;1.13;;
46505;SDS011;32220;49.808;9.968;2024-03-29T12:21:21;1.63;;;1.27;;
46505;SDS011;32220;49.808;9.968;2024-03-29T12:23:48;2.37;;;1.23;;
46505;SDS011;32220;49.808;9.968;2024-03-29T12:26:16;1.33;;;0.97;;
46505;SDS011;32220;49.808;9.968;2024-03-29T12:28:48;1.70;;;1.03;;
46505;SDS011;32220;49.808;9.968;2024-03-29T12:31:17;1.77;;;0.97;;
46505;SDS011;32220;49.808;9.968;2024-03-29T12:33:51;1.10;;;0.90;;
46505;SDS011;32220;49.808;9.968;2024-03-29T12:36:24;1.27;;;0.97;;
46505;SDS011;32220;49.808;9.968;2024-03-29T12:38:54;1.27;;;1.10;;
46505;SDS011;32220;49.808;9.968;2024-03-29T12:41:24;1.53;;;1.03;;
46505;SDS011;32220;49.808;9.968;2024-03-29T12:43:52;1.00;;;0.90;;
46505;SDS011;32220;49.808;9.968;2024-03-29T12:46:19;1.73;;;1.20;;
46505;SDS011;32220;49.808;9.968;2024-03-29T12:48:47;2.17;;;1.43;;
46505;SDS011;32220;49.808;9.968;2024-03-29T12:51:14;1.47;;;1.37;;
46505;SDS011;32220;49.808;9.968;2024-03-29T12:53:47;1.87;;;1.30;;
46505;SDS011;32220;49.808;9.968;2024-03-29T12:56:14;1.43;;;1.30;;
46505;SDS011;32220;49.808;9.968;2024-03-29T12:58:42;1.77;;;1.30;;
46505;SDS011;32220;49.808;9.968;2024-03-29T13:01:09;1.40;;;1.20;;
46505;SDS011;32220;49.808;9.968;2024-03-29T13:03:37;1.40;;;1.27;;
46505;SDS011;32220;49.808;9.968;2024-03-29T13:06:06;1.20;;;1.00;;
46505;SDS011;32220;49.808;9.968;2024-03-29T13:08:34;2.10;;;1.20;;
46505;SDS011;32220;49.808;9.968;2024-03-29T13:11:04;1.60;;;1.00;;
46505;SDS011;32220;49.808;9.968;2024-03-29T13:13:31;0.80;;;0.77;;
46505;SDS011;32220;49.808;9.968;2024-03-29T13:15:59;0.83;;;0.83;;
46505;SDS011;32220;49.808;9.968;2024-03-29T13:18:27;1.20;;;1.10;;
46505;SDS011;32220;49.808;9.968;2024-03-29T13:20:54;2.17;;;1.20;;
46505;SDS011;32220;49.808;9.968;2024-03-29T13:23:22;1.20;;;0.83;;
46505;SDS011;32220;49.808;9.968;2024-03-29T13:25:49;1.07;;;0.90;;
46505;SDS011;32220;49.808;9.968;2024-03-29T13:28:20;1.33;;;1.10;;
46505;SDS011;32220;49.808;9.968;2024-03-29T13:30:48;1.07;;;0.97;;
46505;SDS011;32220;49.808;9.968;2024-03-29T13:33:17;1.10;;;1.00;;
46505;SDS011;32220;49.808;9.968;2024-03-29T13:35:44;1.67;;;0.90;;
46505;SDS011;32220;49.808;9.968;2024-03-29T13:38:12;1.63;;;0.87;;
46505;SDS011;32220;49.808;9.968;2024-03-29T13:40:40;1.00;;;0.90;;
46505;SDS011;32220;49.808;9.968;2024-03-29T13:43:09;1.30;;;0.97;;
46505;SDS011;32220;49.808;9.968;2024-03-29T13:45:37;0.80;;;0.80;;
46505;SDS011;32220;49.808;9.968;2024-03-29T13:48:05;1.10;;;1.00;;
46505;SDS011;32220;49.808;9.968;2024-03-29T13:50:34;1.40;;;1.30;;
46505;SDS011;32220;49.808;9.968;2024-03-29T13:53:01;1.23;;;1.10;;
46505;SDS011;32220;49.808;9.968;2024-03-29T13:55:29;1.20;;;1.03;;
46505;SDS011;32220;49.808;9.968;2024-03-29T13:57:57;1.33;;;1.17;;
46505;SDS011;32220;49.808;9.968;2024-03-29T14:00:25;1.20;;;1.10;;
46505;SDS011;32220;49.808;9.968;2024-03-29T14:02:53;1.50;;;1.20;;
46505;SDS011;32220;49.808;9.968;2024-03-29T14:05:22;2.87;;;1.50;;
46505;SDS011;32220;49.808;9.968;2024-03-29T14:07:50;1.70;;;1.43;;
46505;SDS011;32220;49.808;9.968;2024-03-29T14:10:16;3.93;;;1.50;;
46505;SDS011;32220;49.808;9.968;2024-03-29T14:12:45;1.50;;;1.40;;
46505;SDS011;32220;49.808;9.968;2024-03-29T14:15:13;2.20;;;1.60;;
46505;SDS011;32220;49.808;9.968;2024-03-29T14:17:40;2.17;;;1.70;;
46505;SDS011;32220;49.808;9.968;2024-03-29T14:20:11;1.90;;;1.60;;
46505;SDS011;32220;49.808;9.968;2024-03-29T14:22:38;2.33;;;1.30;;
46505;SDS011;32220;49.808;9.968;2024-03-29T14:25:06;2.67;;;1.30;;
46505;SDS011;32220;49.808;9.968;2024-03-29T14:27:37;2.10;;;1.50;;
46505;SDS011;32220;49.808;9.968;2024-03-29T14:30:13;2.27;;;1.43;;
46505;SDS011;32220;49.808;9.968;2024-03-29T14:32:45;1.60;;;1.50;;
46505;SDS011;32220;49.808;9.968;2024-03-29T14:35:15;1.33;;;1.23;;
46505;SDS011;32220;49.808;9.968;2024-03-29T14:37:43;1.60;;;1.20;;
46505;SDS011;32220;49.808;9.968;2024-03-29T14:40:11;1.57;;;1.27;;
46505;SDS011;32220;49.808;9.968;2024-03-29T14:42:40;3.10;;;1.40;;
46505;SDS011;32220;49.808;9.968;2024-03-29T14:45:08;2.23;;;1.23;;
46505;SDS011;32220;49.808;9.968;2024-03-29T14:47:37;1.63;;;1.33;;
46505;SDS011;32220;49.808;9.968;2024-03-29T14:50:05;1.63;;;1.33;;
46505;SDS011;32220;49.808;9.968;2024-03-29T14:52:35;1.87;;;1.20;;
46505;SDS011;32220;49.808;9.968;2024-03-29T14:55:03;2.37;;;1.00;;